createdAt,value
2022-11-13T00:02:10.846Z,100241.94
2022-11-13T00:04:38.418Z,100249.78
2022-11-13T00:07:06.076Z,100236.69
2022-11-13T00:09:33.683Z,100238.50
2022-11-13T00:12:02.591Z,100234.16
2022-11-13T00:14:30.191Z,100241.13
2022-11-13T00:16:57.794Z,100243.72
2022-11-13T00:19:25.347Z,100243.72
2022-11-13T00:21:54.748Z,100236.75
2022-11-13T00:24:22.312Z,100227.13
2022-11-13T00:26:49.934Z,100228.94
2022-11-13T00:29:18.884Z,100229.75
2022-11-13T00:31:46.426Z,100230.66
2022-11-13T00:34:41.162Z,100224.56
2022-11-13T00:37:01.803Z,100226.28
2022-11-13T00:39:29.342Z,100221.97
2022-11-13T00:41:56.911Z,100222.75
2022-11-13T00:44:25.820Z,100213.25
2022-11-13T00:46:53.357Z,100204.53
2022-11-13T00:49:20.932Z,100206.25
2022-11-13T00:51:48.512Z,100207.09
2022-11-13T00:54:16.067Z,100195.81
2022-11-13T00:56:43.611Z,100199.34
2022-11-13T00:59:11.356Z,100193.19
2022-11-13T01:01:40.318Z,100189.75
2022-11-13T01:04:07.950Z,100191.47
2022-11-13T01:06:35.504Z,100190.69
2022-11-13T01:09:03.082Z,100187.97
2022-11-13T01:11:31.774Z,100187.97
2022-11-13T01:13:59.604Z,100191.50
2022-11-13T01:16:28.558Z,100189.69
2022-11-13T01:18:57.706Z,100199.34
2022-11-13T01:21:27.443Z,100190.69
2022-11-13T01:23:56.171Z,100185.38
2022-11-13T01:26:26.451Z,100192.34
2022-11-13T01:28:54.215Z,100190.63
2022-11-13T01:31:24.241Z,100188.91
2022-11-13T01:33:52.069Z,100188.06
2022-11-13T01:36:22.765Z,100186.25
2022-11-13T01:38:50.496Z,100188.91
2022-11-13T01:41:23.592Z,100186.31
2022-11-13T01:43:52.421Z,100195.84
2022-11-13T01:46:28.919Z,100188.88
2022-11-13T01:49:02.472Z,100192.34
2022-11-13T01:51:34.512Z,100189.78
2022-11-13T01:54:06.347Z,100186.28
2022-11-13T01:56:33.935Z,100169.81
2022-11-13T01:59:06.895Z,100177.59
2022-11-13T02:01:34.637Z,100172.38
2022-11-13T02:04:02.329Z,100172.38
2022-11-13T02:06:34.374Z,100160.16
2022-11-13T02:09:02.640Z,100165.41
2022-11-13T02:11:30.934Z,100160.22
2022-11-13T02:13:59.606Z,100155.00
2022-11-13T02:16:27.879Z,100148.06
2022-11-13T02:18:56.314Z,100153.25
2022-11-13T02:21:32.714Z,100148.94
2022-11-13T02:24:24.487Z,100143.72
2022-11-13T02:26:55.878Z,100156.75
2022-11-13T02:29:23.810Z,100144.53
2022-11-13T02:31:51.753Z,100136.75
2022-11-13T02:34:19.377Z,100161.94
2022-11-13T02:36:47.273Z,100159.47
2022-11-13T02:39:15.138Z,100160.31
2022-11-13T02:41:43.006Z,100163.81
2022-11-13T02:44:11.925Z,100157.69
2022-11-13T02:46:39.493Z,100160.28
2022-11-13T02:49:07.624Z,100152.44
2022-11-13T02:51:35.210Z,100146.44
2022-11-13T02:54:02.895Z,100143.78
2022-11-13T02:56:30.528Z,100136.75
2022-11-13T02:58:58.192Z,100139.38
2022-11-13T03:01:27.236Z,100128.09
2022-11-13T03:03:58.571Z,100126.41
2022-11-13T03:06:26.409Z,100129.00
2022-11-13T03:08:54.004Z,100127.25
2022-11-13T03:11:21.566Z,100131.59
2022-11-13T03:13:49.131Z,100132.41
2022-11-13T03:16:17.715Z,100124.59
2022-11-13T03:18:46.616Z,100121.09
2022-11-13T03:21:16.089Z,100127.38
2022-11-13T03:23:44.958Z,100113.44
2022-11-13T03:26:13.734Z,100117.72
2022-11-13T03:28:41.389Z,100120.31
2022-11-13T03:31:09.291Z,100111.69
2022-11-13T03:33:36.918Z,100107.28
2022-11-13T03:36:06.640Z,100112.59
2022-11-13T03:38:34.593Z,100101.31
2022-11-13T03:41:02.221Z,100106.50
2022-11-13T03:43:29.860Z,100106.56
2022-11-13T03:45:57.428Z,100100.47
2022-11-13T03:48:25.145Z,100110.91
2022-11-13T03:50:55.136Z,100108.31
2022-11-13T03:53:24.389Z,100111.81
2022-11-13T03:55:52.441Z,100103.09
2022-11-13T03:58:20.674Z,100108.28
2022-11-13T04:00:49.264Z,100109.19
2022-11-13T04:03:17.177Z,100103.13
2022-11-13T04:05:44.728Z,100093.53
2022-11-13T04:08:12.298Z,100095.28
2022-11-13T04:10:41.513Z,100088.38
2022-11-13T04:13:09.361Z,100098.78
2022-11-13T04:15:36.943Z,100095.28
2022-11-13T04:18:04.796Z,100087.47
2022-11-13T04:20:32.488Z,100090.13
2022-11-13T04:23:00.004Z,100077.13
2022-11-13T04:25:28.107Z,100084.09
2022-11-13T04:27:57.177Z,100078.84
2022-11-13T04:30:24.892Z,100075.38
2022-11-13T04:32:52.406Z,100075.38
2022-11-13T04:35:20.223Z,100069.28
2022-11-13T04:37:47.867Z,100068.44
2022-11-13T04:40:15.721Z,100065.81
2022-11-13T04:42:51.468Z,100068.44
2022-11-13T04:45:21.964Z,100061.47
2022-11-13T04:47:49.944Z,100058.00
2022-11-13T04:50:18.138Z,100060.63
2022-11-13T04:52:46.000Z,100052.75
2022-11-13T04:55:13.980Z,100051.97
2022-11-13T04:57:41.831Z,100051.13
2022-11-13T05:00:10.674Z,100049.41
2022-11-13T05:02:39.570Z,100051.97
2022-11-13T05:05:07.770Z,100050.25
2022-11-13T05:07:35.346Z,100048.50
2022-11-13T05:10:03.005Z,100038.97
2022-11-13T05:12:30.541Z,100039.81
2022-11-13T05:14:58.114Z,100037.25
2022-11-13T05:17:25.697Z,100029.41
2022-11-13T05:19:54.657Z,100025.09
2022-11-13T05:22:22.203Z,100023.38
2022-11-13T05:24:49.730Z,100022.47
2022-11-13T05:27:17.846Z,100027.69
2022-11-13T05:29:45.702Z,100024.22
2022-11-13T05:32:13.335Z,100030.34
2022-11-13T05:34:40.959Z,100030.34
2022-11-13T05:37:09.886Z,100025.13
2022-11-13T05:39:37.469Z,100026.00
2022-11-13T05:42:05.632Z,100028.56
2022-11-13T05:44:33.205Z,100025.97
2022-11-13T05:47:00.822Z,100018.16
2022-11-13T05:49:28.442Z,100016.44
2022-11-13T05:51:56.258Z,100009.47
2022-11-13T05:54:25.149Z,100002.53
2022-11-13T05:56:52.717Z,100001.69
2022-11-13T05:59:20.285Z,99996.44
2022-11-13T06:01:47.855Z,99995.59
2022-11-13T06:04:15.427Z,99995.59
2022-11-13T06:06:43.357Z,99986.06
2022-11-13T06:09:11.301Z,99987.81
2022-11-13T06:11:40.191Z,99991.28
2022-11-13T06:14:07.766Z,99982.56
2022-11-13T06:16:37.084Z,99984.28
2022-11-13T06:19:07.114Z,99979.97
2022-11-13T06:21:36.133Z,99985.19
2022-11-13T06:24:03.742Z,99977.41
2022-11-13T06:26:33.090Z,99978.28
2022-11-13T06:29:03.186Z,99981.75
2022-11-13T06:31:32.978Z,99986.97
2022-11-13T06:34:00.984Z,99979.16
2022-11-13T06:36:30.198Z,99975.69
2022-11-13T06:38:57.974Z,99980.03
2022-11-13T06:41:29.290Z,99972.19
2022-11-13T06:44:01.241Z,99973.94
2022-11-13T06:46:32.029Z,99977.41
2022-11-13T06:49:00.039Z,99973.94
2022-11-13T06:51:30.717Z,99968.72
2022-11-13T06:53:59.096Z,99968.75
2022-11-13T06:56:26.799Z,99967.88
2022-11-13T06:58:55.001Z,99968.75
2022-11-13T07:01:24.735Z,99965.28
2022-11-13T07:03:53.712Z,99964.41
2022-11-13T07:06:23.142Z,99979.16
2022-11-13T07:08:50.981Z,99967.88
2022-11-13T07:11:20.633Z,99975.69
2022-11-13T07:13:48.327Z,99975.69
2022-11-13T07:16:18.232Z,99971.34
2022-11-13T07:18:50.566Z,99977.44
2022-11-13T07:21:19.949Z,99964.41
2022-11-13T07:23:48.940Z,99960.06
2022-11-13T07:26:16.548Z,99963.53
2022-11-13T07:28:44.085Z,99967.00
2022-11-13T07:31:13.323Z,99964.41
2022-11-13T07:33:41.092Z,99966.13
2022-11-13T07:36:11.094Z,99960.91
2022-11-13T07:38:39.962Z,99947.03
2022-11-13T07:41:07.758Z,99952.22
2022-11-13T07:43:36.280Z,99953.94
2022-11-13T07:46:03.975Z,99953.91
2022-11-13T07:48:31.943Z,99954.75
2022-11-13T07:51:01.106Z,99955.59
2022-11-13T07:53:28.718Z,99956.38
2022-11-13T07:55:57.603Z,99952.88
2022-11-13T07:58:25.267Z,99944.16
2022-11-13T08:00:52.887Z,99943.16
2022-11-13T08:03:20.442Z,99943.06
2022-11-13T08:05:47.953Z,99943.94
2022-11-13T08:08:16.209Z,99945.59
2022-11-13T08:10:43.952Z,99952.56
2022-11-13T08:13:12.833Z,99950.69
2022-11-13T08:15:40.388Z,99947.00
2022-11-13T08:18:08.084Z,99950.50
2022-11-13T08:20:35.703Z,99947.75
2022-11-13T08:23:05.235Z,99952.03
2022-11-13T08:25:33.811Z,99946.72
2022-11-13T08:28:01.507Z,99947.50
2022-11-13T08:30:30.408Z,99944.09
2022-11-13T08:32:58.003Z,99942.28
2022-11-13T08:35:29.366Z,99936.03
2022-11-13T08:38:02.533Z,99932.44
2022-11-13T08:40:30.340Z,99930.59
2022-11-13T08:42:59.906Z,99928.94
2022-11-13T08:45:27.651Z,99927.25
2022-11-13T08:48:00.475Z,99927.13
2022-11-13T08:50:28.936Z,99921.03
2022-11-13T08:52:56.614Z,99923.66
2022-11-13T08:55:24.742Z,99925.38
2022-11-13T08:57:52.480Z,99921.00
2022-11-13T09:00:20.598Z,99924.25
2022-11-13T09:02:48.158Z,99918.78
2022-11-13T09:05:17.220Z,99913.47
2022-11-13T09:07:44.730Z,99904.75
2022-11-13T09:10:13.029Z,99904.66
2022-11-13T09:12:40.603Z,99902.75
2022-11-13T09:15:09.230Z,99900.91
2022-11-13T09:17:36.815Z,99894.81
2022-11-13T09:20:09.981Z,99889.53
2022-11-13T09:22:42.391Z,99878.97
2022-11-13T09:25:10.602Z,99878.63
2022-11-13T09:27:38.137Z,99882.19
2022-11-13T09:30:06.670Z,99880.13
2022-11-13T09:32:34.225Z,99890.00
2022-11-13T09:35:01.794Z,99886.78
2022-11-13T09:37:32.495Z,99886.84
2022-11-13T09:40:01.387Z,99889.16
2022-11-13T09:42:30.172Z,99892.53
2022-11-13T09:45:01.540Z,99881.50
2022-11-13T09:47:31.633Z,99875.91
2022-11-13T09:50:02.230Z,99874.28
2022-11-13T09:52:33.953Z,99866.88
2022-11-13T09:55:04.287Z,99866.34
2022-11-13T09:57:36.822Z,99859.69
2022-11-13T10:00:07.823Z,99856.78
2022-11-13T10:02:46.779Z,99854.63
2022-11-13T10:05:22.540Z,99846.47
2022-11-13T10:07:56.711Z,99846.22
2022-11-13T10:10:55.120Z,99852.84
2022-11-13T10:13:26.810Z,99840.25
2022-11-13T10:16:07.333Z,99843.56
2022-11-13T10:18:37.197Z,99846.16
2022-11-13T10:21:11.255Z,99846.47
2022-11-13T10:23:39.511Z,99837.88
2022-11-13T10:26:14.888Z,99837.06
2022-11-13T10:28:50.612Z,99833.66
2022-11-13T10:31:19.266Z,99834.25
2022-11-13T10:33:46.915Z,99827.38
2022-11-13T10:36:25.602Z,99825.03
2022-11-13T10:38:57.202Z,99817.47
2022-11-13T10:41:26.077Z,99808.50
2022-11-13T10:44:02.766Z,99803.84
2022-11-13T10:46:31.910Z,99794.91
2022-11-13T10:48:59.926Z,99794.91
2022-11-13T10:51:29.558Z,99787.94
2022-11-13T10:53:58.362Z,99766.78
2022-11-13T10:56:30.417Z,99759.44
2022-11-13T10:59:02.934Z,99748.06
2022-11-13T11:01:30.783Z,99742.53
2022-11-13T11:03:58.668Z,99735.34
2022-11-13T11:07:04.340Z,99727.03
2022-11-13T11:09:24.879Z,99717.44
2022-11-13T11:12:19.666Z,99711.88
2022-11-13T11:15:10.979Z,99701.19
2022-11-13T11:17:43.694Z,99694.72
2022-11-13T11:20:23.442Z,99694.97
2022-11-13T11:22:54.424Z,99680.28
2022-11-13T11:25:31.342Z,99675.44
2022-11-13T11:28:06.582Z,99676.44
2022-11-13T11:30:40.321Z,99671.94
2022-11-13T11:33:15.485Z,99674.19
2022-11-13T11:35:46.997Z,99671.50
2022-11-13T11:38:20.461Z,99671.19
2022-11-13T11:40:51.880Z,99674.13
2022-11-13T11:43:26.641Z,99676.28
2022-11-13T11:45:56.138Z,99666.88
2022-11-13T11:48:33.056Z,99655.63
2022-11-13T11:51:05.905Z,99640.69
2022-11-13T11:53:40.476Z,99644.06
2022-11-13T11:56:24.578Z,99644.13
2022-11-13T11:59:11.181Z,99646.84
2022-11-13T12:01:52.378Z,99642.81
2022-11-13T12:04:33.088Z,99635.94
2022-11-13T12:07:09.850Z,99628.66
2022-11-13T12:09:39.924Z,99634.69
2022-11-13T12:12:14.117Z,99627.75
2022-11-13T12:14:49.442Z,99626.91
2022-11-13T12:17:28.383Z,99618.41
2022-11-13T12:20:01.974Z,99620.66
2022-11-13T12:22:39.349Z,99619.63
2022-11-13T12:25:17.125Z,99619.56
2022-11-13T12:27:48.728Z,99615.94
2022-11-13T12:30:20.140Z,99610.78
2022-11-13T12:33:06.284Z,99612.44
2022-11-13T12:35:33.852Z,99608.94
2022-11-13T12:38:04.401Z,99605.13
2022-11-13T12:40:41.204Z,99608.56
2022-11-13T12:43:28.629Z,99597.38
2022-11-13T12:45:59.840Z,99593.63
2022-11-13T12:48:33.648Z,99595.75
2022-11-13T12:51:02.868Z,99586.44
2022-11-13T12:53:32.583Z,99586.75
2022-11-13T12:56:02.114Z,99578.41
2022-11-13T12:58:31.725Z,99575.31
2022-11-13T13:01:04.369Z,99566.47
2022-11-13T13:03:57.960Z,99575.66
2022-11-13T13:06:39.975Z,99571.47
2022-11-13T13:09:26.606Z,99566.91
2022-11-13T13:12:01.779Z,99571.66
2022-11-13T13:15:00.034Z,99549.03
2022-11-13T13:17:28.926Z,99549.88
2022-11-13T13:20:00.696Z,99553.16
2022-11-13T13:22:30.458Z,99540.66
2022-11-13T13:25:03.206Z,99535.59
2022-11-13T13:27:34.372Z,99536.38
2022-11-13T13:30:02.100Z,99531.59
2022-11-13T13:32:39.154Z,99533.28
2022-11-13T13:35:13.641Z,99537.16
2022-11-13T13:37:45.474Z,99539.34
2022-11-13T13:40:22.107Z,99533.38
2022-11-13T13:43:06.488Z,99525.22
2022-11-13T13:45:41.486Z,99523.78
2022-11-13T13:48:12.451Z,99516.34
2022-11-13T13:50:43.222Z,99510.56
2022-11-13T13:53:13.494Z,99506.34
2022-11-13T13:55:46.542Z,99502.69
2022-11-13T13:58:16.713Z,99494.25
2022-11-13T14:01:05.168Z,99486.84
2022-11-13T14:03:33.496Z,99487.13
2022-11-13T14:06:10.113Z,99483.84
2022-11-13T14:08:37.640Z,99477.25
2022-11-13T14:11:17.856Z,99477.25
2022-11-13T14:13:45.411Z,99466.03
2022-11-13T14:16:13.976Z,99460.69
2022-11-13T14:18:42.883Z,99448.72
2022-11-13T14:21:15.981Z,99446.78
2022-11-13T14:23:45.895Z,99445.91
2022-11-13T14:26:13.614Z,99444.81
2022-11-13T14:28:52.358Z,99444.53
2022-11-13T14:31:21.193Z,99437.06
2022-11-13T14:33:50.946Z,99449.28
2022-11-13T14:36:27.085Z,99429.94
2022-11-13T14:38:55.006Z,99420.56
2022-11-13T14:41:25.569Z,99426.31
2022-11-13T14:43:54.331Z,99431.00
2022-11-13T14:46:28.921Z,99418.00
2022-11-13T14:48:58.280Z,99420.78
2022-11-13T14:51:27.340Z,99420.06
2022-11-13T14:53:59.658Z,99411.53
2022-11-13T14:56:35.291Z,99408.56
2022-11-13T14:59:11.666Z,99406.66
2022-11-13T15:01:42.153Z,99402.81
2022-11-13T15:04:11.092Z,99407.03
2022-11-13T15:06:40.867Z,99406.25
2022-11-13T15:09:13.256Z,99401.56
2022-11-13T15:11:40.812Z,99399.53
2022-11-13T15:14:11.834Z,99392.94
2022-11-13T15:16:39.603Z,99387.19
2022-11-13T15:19:20.744Z,99392.03
2022-11-13T15:22:20.377Z,99388.47
2022-11-13T15:24:36.287Z,99392.28
2022-11-13T15:27:04.334Z,99389.78
2022-11-13T15:29:31.897Z,99387.44
2022-11-13T15:31:59.655Z,99379.22
2022-11-13T15:34:29.177Z,99381.69
2022-11-13T15:36:57.281Z,99380.38
2022-11-13T15:39:25.372Z,99379.28
2022-11-13T15:41:58.436Z,99377.88
2022-11-13T15:44:26.613Z,99377.19
2022-11-13T15:46:54.271Z,99375.94
2022-11-13T15:49:22.465Z,99378.84
2022-11-13T15:51:52.102Z,99369.97
2022-11-13T15:54:26.059Z,99372.38
2022-11-13T15:56:54.316Z,99363.97
2022-11-13T15:59:22.323Z,99367.97
2022-11-13T16:01:53.992Z,99360.47
2022-11-13T16:04:26.694Z,99358.97
2022-11-13T16:07:13.065Z,99353.59
2022-11-13T16:09:40.644Z,99367.66
2022-11-13T16:12:10.514Z,99361.31
2022-11-13T16:14:38.679Z,99370.41
2022-11-13T16:17:07.454Z,99366.22
2022-11-13T16:19:35.007Z,99368.06
2022-11-13T16:22:02.674Z,99369.09
2022-11-13T16:24:31.703Z,99374.66
2022-11-13T16:27:00.881Z,99373.00
2022-11-13T16:29:30.491Z,99370.81
2022-11-13T16:31:58.077Z,99370.09
2022-11-13T16:34:25.727Z,99377.34
2022-11-13T16:36:53.295Z,99368.06
2022-11-13T16:39:20.934Z,99372.78
2022-11-13T16:41:50.010Z,99367.00
2022-11-13T16:44:17.674Z,99359.25
2022-11-13T16:46:47.787Z,99364.72
2022-11-13T16:49:18.968Z,99358.59
2022-11-13T16:51:46.987Z,99361.44
2022-11-13T16:54:14.954Z,99356.69
2022-11-13T16:56:42.655Z,99355.47
2022-11-13T16:59:12.544Z,99347.09
2022-11-13T17:01:40.575Z,99358.47
2022-11-13T17:04:08.279Z,99360.22
2022-11-13T17:06:37.137Z,99363.81
2022-11-13T17:09:05.432Z,99364.22
2022-11-13T17:11:33.677Z,99366.19
2022-11-13T17:14:02.440Z,99363.81
2022-11-13T17:16:32.407Z,99358.59
2022-11-13T17:19:00.749Z,99349.69
2022-11-13T17:21:29.948Z,99338.41
2022-11-13T17:23:58.106Z,99347.94
2022-11-13T17:26:26.476Z,99347.25
2022-11-13T17:28:54.442Z,99342.66
2022-11-13T17:31:22.804Z,99346.50
2022-11-13T17:33:53.175Z,99342.50
2022-11-13T17:36:21.027Z,99348.06
2022-11-13T17:38:48.666Z,99348.28
2022-11-13T17:41:17.408Z,99341.38
2022-11-13T17:43:45.378Z,99344.84
2022-11-13T17:46:14.266Z,99341.41
2022-11-13T17:48:42.602Z,99350.16
2022-11-13T17:51:13.925Z,99340.59
2022-11-13T17:53:41.908Z,99347.63
2022-11-13T17:56:11.612Z,99336.25
2022-11-13T17:58:40.724Z,99332.81
2022-11-13T18:01:10.230Z,99333.59
2022-11-13T18:03:38.016Z,99331.91
2022-11-13T18:06:07.470Z,99334.75
2022-11-13T18:08:38.829Z,99319.94
2022-11-13T18:11:11.157Z,99320.94
2022-11-13T18:13:39.303Z,99314.97
2022-11-13T18:16:08.268Z,99322.53
2022-11-13T18:18:36.233Z,99323.38
2022-11-13T18:21:22.351Z,99321.81
2022-11-13T18:23:57.634Z,99325.28
2022-11-13T18:26:25.650Z,99315.59
2022-11-13T18:28:53.303Z,99326.66
2022-11-13T18:31:21.895Z,99325.25
2022-11-13T18:33:49.596Z,99318.22
2022-11-13T18:36:17.342Z,99320.13
2022-11-13T18:38:45.129Z,99320.22
2022-11-13T18:41:15.499Z,99320.28
2022-11-13T18:43:44.252Z,99325.63
2022-11-13T18:46:12.819Z,99323.94
2022-11-13T18:48:41.915Z,99310.72
2022-11-13T18:51:13.475Z,99311.59
2022-11-13T18:53:41.385Z,99314.94
2022-11-13T18:56:12.956Z,99304.53
2022-11-13T18:58:43.360Z,99300.69
2022-11-13T19:01:14.124Z,99297.84
2022-11-13T19:04:08.172Z,99298.13
2022-11-13T19:06:32.041Z,99292.00
2022-11-13T19:09:00.816Z,99291.09
2022-11-13T19:11:29.826Z,99291.97
2022-11-13T19:13:58.972Z,99285.00
2022-11-13T19:16:28.228Z,99282.38
2022-11-13T19:18:57.549Z,99286.81
2022-11-13T19:21:27.433Z,99280.81
2022-11-13T19:23:55.340Z,99271.22
2022-11-13T19:26:22.982Z,99267.72
2022-11-13T19:28:51.717Z,99269.44
2022-11-13T19:31:21.989Z,99265.00
2022-11-13T19:33:55.066Z,99268.63
2022-11-13T19:36:24.747Z,99261.84
2022-11-13T19:38:53.293Z,99266.16
2022-11-13T19:41:21.328Z,99256.75
2022-11-13T19:43:49.000Z,99238.22
2022-11-13T19:46:18.367Z,99245.25
2022-11-13T19:48:48.804Z,99243.63
2022-11-13T19:51:18.544Z,99242.66
2022-11-13T19:53:47.082Z,99238.44
2022-11-13T19:56:15.643Z,99235.75
2022-11-13T19:58:44.466Z,99233.03
2022-11-13T20:01:13.098Z,99235.75
2022-11-13T20:03:41.247Z,99227.78
2022-11-13T20:06:11.527Z,99233.28
2022-11-13T20:08:39.388Z,99233.38
2022-11-13T20:11:10.088Z,99233.19
2022-11-13T20:13:38.725Z,99218.72
2022-11-13T20:16:08.971Z,99219.53
2022-11-13T20:18:37.012Z,99221.25
2022-11-13T20:21:05.676Z,99211.03
2022-11-13T20:23:35.288Z,99216.91
2022-11-13T20:26:04.653Z,99213.38
2022-11-13T20:28:32.638Z,99210.28
2022-11-13T20:31:04.267Z,99210.53
2022-11-13T20:33:32.977Z,99207.13
2022-11-13T20:36:00.637Z,99208.91
2022-11-13T20:38:29.360Z,99214.34
2022-11-13T20:40:58.513Z,99209.28
2022-11-13T20:43:26.118Z,99204.25
2022-11-13T20:46:02.292Z,99200.06
2022-11-13T20:48:30.705Z,99203.53
2022-11-13T20:50:58.520Z,99205.88
2022-11-13T20:53:26.114Z,99209.50
2022-11-13T20:55:53.744Z,99212.41
2022-11-13T20:58:22.784Z,99209.09
2022-11-13T21:00:50.472Z,99208.91
2022-11-13T21:03:18.148Z,99210.78
2022-11-13T21:05:45.771Z,99210.91
2022-11-13T21:08:13.568Z,99214.66
2022-11-13T21:10:41.877Z,99211.94
2022-11-13T21:13:09.421Z,99210.28
2022-11-13T21:15:39.728Z,99210.22
2022-11-13T21:18:07.580Z,99210.28
2022-11-13T21:20:35.802Z,99206.97
2022-11-13T21:23:03.388Z,99204.44
2022-11-13T21:25:31.688Z,99207.16
2022-11-13T21:27:59.316Z,99201.94
2022-11-13T21:30:27.031Z,99192.41
2022-11-13T21:32:56.002Z,99192.31
2022-11-13T21:35:23.718Z,99193.31
2022-11-13T21:37:51.352Z,99193.59
2022-11-13T21:40:19.059Z,99184.00
2022-11-13T21:42:47.273Z,99184.31
2022-11-13T21:45:15.097Z,99186.13
2022-11-13T21:47:43.314Z,99178.41
2022-11-13T21:50:12.766Z,99173.38
2022-11-13T21:52:40.440Z,99176.88
2022-11-13T21:55:10.012Z,99176.91
2022-11-13T21:57:37.602Z,99171.84
2022-11-13T22:00:06.106Z,99176.25
2022-11-13T22:02:33.925Z,99168.56
2022-11-13T22:05:01.543Z,99171.16
2022-11-13T22:07:30.705Z,99165.44
2022-11-13T22:09:58.304Z,99165.91
2022-11-13T22:12:25.926Z,99167.88
2022-11-13T22:14:53.485Z,99158.34
2022-11-13T22:17:21.094Z,99160.19
2022-11-13T22:19:48.819Z,99164.63
2022-11-13T22:22:16.570Z,99172.56
2022-11-13T22:24:45.516Z,99168.34
2022-11-13T22:27:13.262Z,99170.03
2022-11-13T22:29:40.893Z,99163.84
2022-11-13T22:32:08.496Z,99164.06
2022-11-13T22:34:36.164Z,99158.94
2022-11-13T22:37:03.731Z,99166.63
2022-11-13T22:39:31.964Z,99161.66
2022-11-13T22:42:00.966Z,99159.69
2022-11-13T22:44:45.467Z,99149.22
2022-11-13T22:47:16.102Z,99148.47
2022-11-13T22:49:43.806Z,99145.19
2022-11-13T22:52:11.542Z,99142.63
2022-11-13T22:54:39.235Z,99139.22
2022-11-13T22:57:08.165Z,99139.34
2022-11-13T22:59:35.804Z,99137.72
2022-11-13T23:02:03.458Z,99142.09
2022-11-13T23:04:31.024Z,99142.97
2022-11-13T23:06:58.654Z,99141.13
2022-11-13T23:09:27.093Z,99137.72
2022-11-13T23:11:54.714Z,99137.88
2022-11-13T23:14:23.943Z,99144.03
2022-11-13T23:16:51.494Z,99142.38
2022-11-13T23:19:19.133Z,99131.13
2022-11-13T23:21:47.025Z,99134.56
2022-11-13T23:24:14.763Z,99128.53
2022-11-13T23:26:42.528Z,99129.66
2022-11-13T23:29:11.125Z,99125.59
2022-11-13T23:31:40.336Z,99126.59
2022-11-13T23:34:08.105Z,99111.81
2022-11-13T23:36:35.899Z,99122.28
2022-11-13T23:39:03.710Z,99119.72
2022-11-13T23:41:31.294Z,99124.88
2022-11-13T23:44:14.083Z,99120.69
2022-11-13T23:46:43.093Z,99110.34
2022-11-13T23:49:10.793Z,99118.09
2022-11-13T23:51:38.596Z,99111.00
2022-11-13T23:54:06.258Z,99107.81
2022-11-13T23:56:33.832Z,99100.09
2022-11-13T23:59:01.507Z,99100.16
